KJST/JST METAR and TAF weather

Enter ICAO airport designator
Station Type Date Time Source
KJST METAR 2020/11/27 14:54 UTC NOAA

KJST 271454Z AUTO 25003KT 4SM BR OVC004 07/05 A3009 RMK AO2 CIG 002V007 SLP199 60001 T00670050 53001


Station Type Date Time Source
KJST Decoded METAR 2020/11/27 14:54 UTC NOAA

JOHNSTOWN-CAMBRIA CO AIRPORT , PA, United States (KJST) 40-19N 078-50W 694M
Nov 27, 2020 - 09:54 AM EST / 2020.11.27 1454 UTC
Wind: from the WSW (250 degrees) at 3 MPH (3 KT):0
Visibility: 4 mile(s):0
Sky conditions: overcast
Weather: mist
Temperature: 44.1 F (6.7 C)
Dew Point: 41.0 F (5.0 C)
Relative Humidity: 88%
Pressure (altimeter): 30.09 in. Hg (1018 hPa)
Pressure tendency: 0.00 inches (0.1 hPa) higher than three hours ago
ob: KJST 271454Z AUTO 25003KT 4SM BR OVC004 07/05 A3009 RMK AO2 CIG 002V007 SLP199 60001 T00670050 53001
cycle: 15

Station Type Date Time Source
KJST TAF 2020/11/27 21:00 UTC NOAA

KJST 262118Z 2621/2718 26008KT P6SM SCT015 OVC027
FM262300 24006KT P6SM OVC008
FM270900 25005KT 4SM -DZ BR OVC004
FM271300 26007KT P6SM OVC008
FM271600 26008KT P6SM OVC015

Example: see airport list